Time;durP1;ratioP1;P1;durP2;ratioP2;P2;SDS_P1;SDS_P2;PMS_P1;PMS_P2;Temp;Humidity;BMP_temperature;BMP_pressure;BME280_temperature;BME280_humidity;BME280_pressure;Samples;Min_cycle;Max_cycle;Signal;HPM_P1;HPM_P2
2022/02/23 00:00:42;;;;;;;4.38;1.73;;;;;;;;;;5053745;28;20023;-73
2022/02/23 00:03:09;;;;;;;2.92;1.55;;;;;;;;;;5052580;28;20025;-73
2022/02/23 00:05:35;;;;;;;4.68;1.85;;;;;;;;;;5052430;28;20044;-73
2022/02/23 00:08:01;;;;;;;3.20;1.70;;;;;;;;;;5074862;28;20394;-73
2022/02/23 00:10:27;;;;;;;3.80;1.95;;;;;;;;;;5049987;28;20029;-73
2022/02/23 00:12:53;;;;;;;3.95;1.67;;;;;;;;;;5072297;28;20379;-73
2022/02/23 00:15:19;;;;;;;3.53;1.70;;;;;;;;;;5072264;28;20028;-74
2022/02/23 00:17:46;;;;;;;3.65;1.73;;;;;;;;;;5072937;28;20027;-73
2022/02/23 00:20:15;;;;;;;3.15;1.52;;;;;;;;;;5071030;28;20028;-73
2022/02/23 00:22:41;;;;;;;3.30;1.58;;;;;;;;;;5052673;28;20055;-73
2022/02/23 00:25:08;;;;;;;3.63;1.75;;;;;;;;;;5052236;28;20029;-73
2022/02/23 00:27:34;;;;;;;4.43;1.67;;;;;;;;;;5069569;28;20108;-73
2022/02/23 00:30:00;;;;;;;3.13;1.33;;;;;;;;;;5072488;28;20424;-73
2022/02/23 00:32:26;;;;;;;3.35;1.52;;;;;;;;;;5071806;28;20124;-73
2022/02/23 00:34:52;;;;;;;3.33;1.50;;;;;;;;;;5068296;28;20048;-73
2022/02/23 00:37:18;;;;;;;3.80;1.90;;;;;;;;;;5084890;28;20024;-73
2022/02/23 00:39:45;;;;;;;3.45;1.85;;;;;;;;;;5092812;28;20440;-73
2022/02/23 00:42:11;;;;;;;2.60;1.40;;;;;;;;;;5084572;28;20033;-73
2022/02/23 00:44:37;;;;;;;3.50;1.48;;;;;;;;;;5071776;28;20032;-73
2022/02/23 00:47:03;;;;;;;3.10;1.15;;;;;;;;;;5066350;28;20492;-73
2022/02/23 00:49:29;;;;;;;4.20;1.77;;;;;;;;;;5051944;28;20037;-73
2022/02/23 00:51:56;;;;;;;3.95;1.67;;;;;;;;;;5051474;28;20104;-73
2022/02/23 00:54:22;;;;;;;3.22;1.60;;;;;;;;;;5052269;28;20549;-73
2022/02/23 00:56:49;;;;;;;3.67;1.55;;;;;;;;;;5050519;28;20021;-73
2022/02/23 00:59:15;;;;;;;3.45;1.70;;;;;;;;;;5046570;28;20025;-73
2022/02/23 01:01:41;;;;;;;2.95;1.50;;;;;;;;;;5071438;28;20028;-73
2022/02/23 01:04:08;;;;;;;2.58;1.50;;;;;;;;;;5071696;28;20032;-73
2022/02/23 01:06:35;;;;;;;3.17;1.40;;;;;;;;;;5071390;28;20037;-73
2022/02/23 01:09:01;;;;;;;2.55;1.27;;;;;;;;;;5091347;28;20052;-73
2022/02/23 01:11:28;;;;;;;3.45;1.60;;;;;;;;;;5082494;28;20032;-73
2022/02/23 01:13:54;;;;;;;2.83;1.40;;;;;;;;;;5071888;28;20025;-73
2022/02/23 01:16:20;;;;;;;2.92;1.33;;;;;;;;;;5071528;28;20062;-73
2022/02/23 01:18:46;;;;;;;2.40;1.40;;;;;;;;;;5053596;28;20107;-73
2022/02/23 01:21:12;;;;;;;3.60;1.70;;;;;;;;;;5061754;28;20044;-73
2022/02/23 01:23:39;;;;;;;2.90;1.55;;;;;;;;;;5060796;28;20029;-74
2022/02/23 01:26:05;;;;;;;3.97;1.67;;;;;;;;;;5071549;28;20040;-73
2022/02/23 01:28:32;;;;;;;3.17;1.23;;;;;;;;;;5071128;28;20029;-74
2022/02/23 01:30:58;;;;;;;3.20;1.52;;;;;;;;;;5069515;28;20495;-73
2022/02/23 01:33:24;;;;;;;4.53;1.80;;;;;;;;;;5070825;28;20024;-73
2022/02/23 01:35:50;;;;;;;3.03;1.30;;;;;;;;;;5068453;28;20364;-73
2022/02/23 01:38:17;;;;;;;3.63;1.50;;;;;;;;;;5091541;28;20085;-73
2022/02/23 01:40:43;;;;;;;3.70;1.50;;;;;;;;;;5091660;28;20032;-73
2022/02/23 01:43:09;;;;;;;2.53;1.30;;;;;;;;;;5076394;28;20392;-73
2022/02/23 01:45:35;;;;;;;2.17;1.20;;;;;;;;;;5071426;28;20020;-73
2022/02/23 01:48:03;;;;;;;3.13;1.58;;;;;;;;;;5058100;28;20082;-73
2022/02/23 01:50:29;;;;;;;4.55;1.60;;;;;;;;;;5051358;28;20107;-73
2022/02/23 01:52:55;;;;;;;2.75;1.30;;;;;;;;;;5051445;28;20025;-73
2022/02/23 01:55:21;;;;;;;2.75;1.42;;;;;;;;;;5051345;28;20484;-73
2022/02/23 01:57:47;;;;;;;3.50;1.70;;;;;;;;;;5050918;28;20244;-73
2022/02/23 02:00:15;;;;;;;3.22;1.42;;;;;;;;;;5051668;28;20411;-73
2022/02/23 02:02:42;;;;;;;3.22;1.52;;;;;;;;;;5040576;28;20059;-73
2022/02/23 02:05:09;;;;;;;3.55;1.50;;;;;;;;;;5074544;28;20039;-73
2022/02/23 02:07:35;;;;;;;2.65;1.40;;;;;;;;;;5073856;28;20080;-73
2022/02/23 02:10:01;;;;;;;4.18;1.58;;;;;;;;;;5078253;28;20054;-73
2022/02/23 02:12:27;;;;;;;3.40;1.45;;;;;;;;;;5074579;28;20100;-73
2022/02/23 02:14:54;;;;;;;2.70;1.30;;;;;;;;;;5074967;28;20028;-73
2022/02/23 02:17:20;;;;;;;2.95;1.20;;;;;;;;;;5074718;28;20033;-73
2022/02/23 02:19:46;;;;;;;3.47;1.50;;;;;;;;;;5074824;28;20552;-73
2022/02/23 02:22:13;;;;;;;3.42;1.48;;;;;;;;;;5055963;28;20123;-73
2022/02/23 02:24:41;;;;;;;2.75;1.30;;;;;;;;;;5054366;28;20025;-74
2022/02/23 02:27:11;;;;;;;2.00;1.20;;;;;;;;;;5054875;28;20403;-73
2022/02/23 02:29:38;;;;;;;2.78;1.42;;;;;;;;;;5054329;28;20017;-73
2022/02/23 02:32:04;;;;;;;2.63;1.30;;;;;;;;;;5053913;28;20029;-73
2022/02/23 02:34:31;;;;;;;2.50;1.48;;;;;;;;;;5055926;28;20028;-73
2022/02/23 02:36:57;;;;;;;3.10;1.60;;;;;;;;;;5074226;28;20111;-73
2022/02/23 02:39:24;;;;;;;2.75;1.60;;;;;;;;;;5056125;28;20491;-73
2022/02/23 02:41:50;;;;;;;2.67;1.30;;;;;;;;;;5060029;28;20492;-73
2022/02/23 02:44:16;;;;;;;2.72;1.23;;;;;;;;;;5094571;28;20024;-74
2022/02/23 02:46:42;;;;;;;3.00;1.30;;;;;;;;;;5092512;28;20594;-73
2022/02/23 02:49:09;;;;;;;3.08;1.33;;;;;;;;;;5074112;28;20035;-73
2022/02/23 02:51:36;;;;;;;2.47;1.20;;;;;;;;;;5073684;28;20033;-73
2022/02/23 02:54:02;;;;;;;2.85;1.17;;;;;;;;;;5074202;28;20023;-73
2022/02/23 02:56:28;;;;;;;3.13;1.33;;;;;;;;;;5074172;28;20104;-73
2022/02/23 02:58:54;;;;;;;2.42;1.23;;;;;;;;;;5051733;28;20029;-73
2022/02/23 03:01:21;;;;;;;2.17;1.00;;;;;;;;;;5053675;28;20032;-73
2022/02/23 03:03:47;;;;;;;1.73;1.08;;;;;;;;;;5069566;28;20013;-73
2022/02/23 03:06:14;;;;;;;2.47;1.30;;;;;;;;;;5073961;28;20044;-73
2022/02/23 03:08:40;;;;;;;2.08;1.08;;;;;;;;;;5071402;28;20021;-73
2022/02/23 03:11:06;;;;;;;3.28;1.40;;;;;;;;;;5068261;28;20025;-73
2022/02/23 03:13:32;;;;;;;2.20;1.20;;;;;;;;;;5053310;28;20082;-73
2022/02/23 03:15:58;;;;;;;3.30;1.50;;;;;;;;;;5054020;28;20025;-73
2022/02/23 03:18:24;;;;;;;2.38;1.00;;;;;;;;;;5035851;28;20091;-74
2022/02/23 03:20:51;;;;;;;3.55;1.55;;;;;;;;;;5052774;28;20445;-73
2022/02/23 03:23:17;;;;;;;2.65;1.20;;;;;;;;;;5053543;28;20040;-73
2022/02/23 03:25:43;;;;;;;2.38;1.10;;;;;;;;;;5053525;28;20117;-73
2022/02/23 03:28:09;;;;;;;3.13;1.30;;;;;;;;;;5053968;28;20108;-73
2022/02/23 03:30:38;;;;;;;2.03;1.10;;;;;;;;;;5053530;28;20025;-73
2022/02/23 03:33:04;;;;;;;3.17;1.42;;;;;;;;;;5053392;28;20078;-73
2022/02/23 03:35:30;;;;;;;3.47;1.58;;;;;;;;;;5063522;28;20021;-73
2022/02/23 03:37:57;;;;;;;2.47;1.10;;;;;;;;;;5093598;28;20372;-73
2022/02/23 03:40:24;;;;;;;1.88;1.00;;;;;;;;;;5078475;28;20576;-74
2022/02/23 03:42:50;;;;;;;2.60;1.20;;;;;;;;;;5082933;28;20019;-73
2022/02/23 03:45:16;;;;;;;2.97;1.42;;;;;;;;;;5093523;28;20024;-73
2022/02/23 03:47:43;;;;;;;2.33;1.30;;;;;;;;;;5082162;28;20025;-74
2022/02/23 03:50:09;;;;;;;2.42;1.20;;;;;;;;;;5072943;28;20419;-73
2022/02/23 03:52:35;;;;;;;2.53;1.20;;;;;;;;;;5055178;28;20102;-73
2022/02/23 03:55:01;;;;;;;2.45;1.25;;;;;;;;;;5072899;28;20035;-73
2022/02/23 03:57:27;;;;;;;1.88;1.02;;;;;;;;;;5072764;28;20020;-73
2022/02/23 03:59:53;;;;;;;2.15;0.80;;;;;;;;;;5042721;28;20033;-73
2022/02/23 04:02:19;;;;;;;1.88;1.00;;;;;;;;;;5034503;28;20063;-73
2022/02/23 04:07:49;;;;;;;3.55;1.42;;;;;;;;;;5070983;28;20136;-73
2022/02/23 04:10:19;;;;;;;3.00;1.10;;;;;;;;;;5092770;28;20483;-73
2022/02/23 04:12:46;;;;;;;3.85;1.48;;;;;;;;;;5053612;28;20464;-76
2022/02/23 04:15:12;;;;;;;2.25;1.13;;;;;;;;;;5072834;28;20021;-76
2022/02/23 04:17:38;;;;;;;2.58;1.00;;;;;;;;;;5054734;28;20042;-76
2022/02/23 04:20:05;;;;;;;2.42;1.08;;;;;;;;;;5071888;28;20024;-76
2022/02/23 04:22:31;;;;;;;1.98;1.05;;;;;;;;;;5053244;28;20048;-76
2022/02/23 04:24:58;;;;;;;3.35;1.33;;;;;;;;;;5072326;28;20028;-76
2022/02/23 04:27:24;;;;;;;3.20;1.30;;;;;;;;;;5072374;28;20407;-76
2022/02/23 04:29:50;;;;;;;2.78;1.00;;;;;;;;;;5072657;28;20051;-76
2022/02/23 04:32:16;;;;;;;2.38;1.15;;;;;;;;;;5071813;28;20024;-76
2022/02/23 04:34:42;;;;;;;1.95;1.05;;;;;;;;;;5073113;28;20035;-73
2022/02/23 04:37:08;;;;;;;3.03;1.27;;;;;;;;;;5090403;28;20137;-73
2022/02/23 04:39:34;;;;;;;3.60;1.20;;;;;;;;;;5095278;28;20024;-73
2022/02/23 04:42:01;;;;;;;2.28;1.10;;;;;;;;;;5089006;28;20020;-73
2022/02/23 04:44:27;;;;;;;2.92;1.30;;;;;;;;;;5073236;28;20093;-73
2022/02/23 04:46:55;;;;;;;2.20;1.02;;;;;;;;;;5074674;28;20028;-73
2022/02/23 04:49:21;;;;;;;2.47;1.33;;;;;;;;;;5074859;28;20106;-73
2022/02/23 04:51:47;;;;;;;2.25;1.05;;;;;;;;;;5074952;28;20040;-73
2022/02/23 04:54:13;;;;;;;2.75;1.23;;;;;;;;;;5074764;28;20032;-73
2022/02/23 04:56:39;;;;;;;2.15;1.13;;;;;;;;;;5074792;28;20134;-72
2022/02/23 04:59:06;;;;;;;2.08;0.82;;;;;;;;;;5067284;28;20039;-75
2022/02/23 05:01:32;;;;;;;3.05;1.10;;;;;;;;;;5050930;28;20128;-76
2022/02/23 05:03:58;;;;;;;2.95;1.30;;;;;;;;;;5052217;28;20027;-76
2022/02/23 05:06:48;;;;;;;2.65;1.15;;;;;;;;;;5053669;28;20070;-76
2022/02/23 05:09:14;;;;;;;4.38;1.38;;;;;;;;;;5059525;28;20082;-76
2022/02/23 05:11:41;;;;;;;2.83;1.20;;;;;;;;;;5052907;28;20025;-76
2022/02/23 05:14:07;;;;;;;2.22;1.00;;;;;;;;;;5051781;28;20021;-76
2022/02/23 05:16:33;;;;;;;1.75;0.85;;;;;;;;;;5058727;28;20495;-76
2022/02/23 05:18:59;;;;;;;2.35;1.08;;;;;;;;;;5034250;28;20072;-76
2022/02/23 05:21:25;;;;;;;3.15;1.08;;;;;;;;;;5050658;28;20023;-76
2022/02/23 05:23:51;;;;;;;1.88;0.95;;;;;;;;;;5054779;28;20021;-76
2022/02/23 05:26:17;;;;;;;2.58;1.25;;;;;;;;;;5071875;28;20559;-76
2022/02/23 05:28:43;;;;;;;1.38;0.85;;;;;;;;;;5071567;28;20036;-76
2022/02/23 05:31:09;;;;;;;2.28;0.95;;;;;;;;;;5071872;28;20017;-76
2022/02/23 05:33:35;;;;;;;2.75;1.10;;;;;;;;;;5052579;28;20603;-76
2022/02/23 05:36:01;;;;;;;1.70;0.80;;;;;;;;;;5064140;28;20017;-76
2022/02/23 05:38:28;;;;;;;2.78;1.17;;;;;;;;;;5071568;28;20047;-76
2022/02/23 05:40:55;;;;;;;2.78;1.00;;;;;;;;;;5063936;28;20031;-76
2022/02/23 05:43:21;;;;;;;3.28;1.45;;;;;;;;;;5051081;28;20028;-76
2022/02/23 05:45:47;;;;;;;1.75;0.80;;;;;;;;;;5075878;28;20108;-76
2022/02/23 05:48:14;;;;;;;2.88;1.33;;;;;;;;;;5058790;28;20039;-76
2022/02/23 05:50:40;;;;;;;3.72;1.20;;;;;;;;;;5055348;28;20029;-76
2022/02/23 05:53:06;;;;;;;2.25;0.90;;;;;;;;;;5037482;28;20037;-73
2022/02/23 05:55:32;;;;;;;2.22;0.93;;;;;;;;;;5055265;28;20051;-73
2022/02/23 05:57:58;;;;;;;2.03;1.10;;;;;;;;;;5055451;28;20737;-73
2022/02/23 06:00:24;;;;;;;1.70;0.85;;;;;;;;;;5039116;28;20021;-73
2022/02/23 06:02:50;;;;;;;3.25;1.10;;;;;;;;;;5034945;28;20590;-74
2022/02/23 06:05:16;;;;;;;2.58;1.10;;;;;;;;;;5035614;28;20104;-74
2022/02/23 06:07:42;;;;;;;2.45;1.08;;;;;;;;;;5042268;28;20136;-74
2022/02/23 06:10:09;;;;;;;2.08;1.02;;;;;;;;;;5054814;28;20032;-74
2022/02/23 06:12:35;;;;;;;1.92;1.05;;;;;;;;;;5072293;28;20040;-74
2022/02/23 06:15:01;;;;;;;1.75;0.90;;;;;;;;;;5081942;28;20015;-74
2022/02/23 06:17:28;;;;;;;1.90;0.80;;;;;;;;;;5077265;28;20021;-74
2022/02/23 06:19:54;;;;;;;2.63;1.02;;;;;;;;;;5087510;28;20463;-74
2022/02/23 06:22:20;;;;;;;1.85;0.98;;;;;;;;;;5055591;28;20495;-74
2022/02/23 06:24:46;;;;;;;1.90;0.80;;;;;;;;;;5074108;28;20103;-74
2022/02/23 06:27:13;;;;;;;1.33;0.80;;;;;;;;;;5074821;28;20044;-74
2022/02/23 06:29:41;;;;;;;3.13;1.20;;;;;;;;;;5074615;28;20029;-75
2022/02/23 06:32:07;;;;;;;2.22;1.10;;;;;;;;;;5073837;28;20036;-74
2022/02/23 06:34:34;;;;;;;2.47;0.88;;;;;;;;;;5056447;28;20020;-74
2022/02/23 06:37:02;;;;;;;2.75;1.17;;;;;;;;;;5088755;28;20100;-74
2022/02/23 06:39:32;;;;;;;1.63;0.82;;;;;;;;;;5062699;28;20494;-74
2022/02/23 06:41:58;;;;;;;2.90;1.05;;;;;;;;;;5064723;28;20020;-74
2022/02/23 06:44:24;;;;;;;2.85;0.88;;;;;;;;;;5094592;28;20028;-74
2022/02/23 06:46:50;;;;;;;1.60;0.90;;;;;;;;;;5073016;28;20031;-74
2022/02/23 06:49:17;;;;;;;3.80;1.25;;;;;;;;;;5074449;28;20024;-74
2022/02/23 06:51:43;;;;;;;1.88;0.95;;;;;;;;;;5055564;28;20056;-74
2022/02/23 06:54:09;;;;;;;1.50;0.98;;;;;;;;;;5073150;28;20029;-74
2022/02/23 06:56:36;;;;;;;1.50;0.90;;;;;;;;;;5076922;28;20016;-74
2022/02/23 06:59:03;;;;;;;2.83;0.90;;;;;;;;;;5082900;28;20040;-74
2022/02/23 07:01:29;;;;;;;1.88;0.90;;;;;;;;;;5073394;28;20486;-74
2022/02/23 07:03:55;;;;;;;3.33;1.27;;;;;;;;;;5056628;28;20119;-74
2022/02/23 07:06:21;;;;;;;3.20;1.23;;;;;;;;;;5094347;28;20047;-74
2022/02/23 07:08:48;;;;;;;1.40;0.73;;;;;;;;;;5075696;28;20529;-74
2022/02/23 07:11:15;;;;;;;2.25;1.10;;;;;;;;;;5087448;28;20017;-74
2022/02/23 07:13:43;;;;;;;1.58;0.73;;;;;;;;;;5085113;28;20506;-77
2022/02/23 07:16:10;;;;;;;2.47;1.02;;;;;;;;;;5080659;28;20184;-73
2022/02/23 07:18:37;;;;;;;1.90;0.80;;;;;;;;;;5077004;28;20020;-73
2022/02/23 07:21:03;;;;;;;2.75;1.10;;;;;;;;;;5067988;28;20048;-74
2022/02/23 07:23:29;;;;;;;1.50;0.90;;;;;;;;;;5055973;28;20025;-74
2022/02/23 07:25:55;;;;;;;2.30;1.20;;;;;;;;;;5066538;28;20441;-74
2022/02/23 07:28:24;;;;;;;1.50;1.13;;;;;;;;;;5073719;28;20027;-74
2022/02/23 07:30:51;;;;;;;1.88;0.95;;;;;;;;;;5073760;28;20499;-74
2022/02/23 07:33:18;;;;;;;1.98;1.10;;;;;;;;;;5073380;28;20437;-74
2022/02/23 07:35:44;;;;;;;1.63;0.90;;;;;;;;;;5063090;28;20021;-74
2022/02/23 07:38:11;;;;;;;2.42;1.00;;;;;;;;;;5053496;28;20021;-74
2022/02/23 07:40:37;;;;;;;3.58;1.35;;;;;;;;;;5054055;28;20028;-74
2022/02/23 07:43:07;;;;;;;1.85;0.88;;;;;;;;;;5063304;28;20032;-74
2022/02/23 07:45:33;;;;;;;2.58;1.27;;;;;;;;;;5075131;28;20028;-74
2022/02/23 07:48:01;;;;;;;2.47;1.10;;;;;;;;;;5080031;28;20025;-74
2022/02/23 07:50:28;;;;;;;1.95;1.10;;;;;;;;;;5053972;28;20085;-74
2022/02/23 07:52:54;;;;;;;2.45;1.00;;;;;;;;;;5051853;28;20580;-74
2022/02/23 07:55:22;;;;;;;1.33;0.80;;;;;;;;;;5068521;28;20024;-74
2022/02/23 07:57:48;;;;;;;1.25;0.90;;;;;;;;;;5043891;28;20501;-74
2022/02/23 08:00:16;;;;;;;3.58;0.95;;;;;;;;;;5063185;28;20056;-74
2022/02/23 08:02:42;;;;;;;4.07;0.88;;;;;;;;;;5051411;28;20033;-74
2022/02/23 08:05:08;;;;;;;3.63;1.02;;;;;;;;;;5062089;28;20036;-75
2022/02/23 08:07:34;;;;;;;2.53;1.10;;;;;;;;;;5035566;28;20130;-75
2022/02/23 08:10:00;;;;;;;1.65;0.95;;;;;;;;;;5070151;28;20039;-74
2022/02/23 08:12:27;;;;;;;3.83;1.05;;;;;;;;;;5066173;28;20036;-74
2022/02/23 08:14:55;;;;;;;3.08;1.13;;;;;;;;;;5071037;28;20100;-76
2022/02/23 08:20:06;;;;;;;2.72;1.05;;;;;;;;;;5057646;28;20079;-74
2022/02/23 08:22:33;;;;;;;3.38;1.20;;;;;;;;;;5060385;28;20522;-74
2022/02/23 08:24:59;;;;;;;3.25;1.00;;;;;;;;;;5068782;28;20032;-73
2022/02/23 08:27:27;;;;;;;3.20;1.20;;;;;;;;;;5064371;28;20052;-74
2022/02/23 08:29:54;;;;;;;1.58;0.90;;;;;;;;;;5040556;28;20418;-74
2022/02/23 08:32:21;;;;;;;5.95;1.33;;;;;;;;;;5057086;28;20021;-74
2022/02/23 08:34:48;;;;;;;4.07;0.93;;;;;;;;;;5066139;28;20029;-75
2022/02/23 08:37:15;;;;;;;4.68;1.25;;;;;;;;;;5071781;28;20080;-75
2022/02/23 08:39:41;;;;;;;2.08;1.00;;;;;;;;;;5080475;28;20035;-75
2022/02/23 08:42:09;;;;;;;3.72;0.90;;;;;;;;;;5074253;28;20040;-76
2022/02/23 08:44:35;;;;;;;5.80;1.35;;;;;;;;;;5076647;28;20039;-75
2022/02/23 08:47:02;;;;;;;7.15;1.25;;;;;;;;;;5063969;28;20035;-75
2022/02/23 08:49:29;;;;;;;6.75;1.52;;;;;;;;;;5076770;28;20028;-75
2022/02/23 08:51:56;;;;;;;3.95;1.52;;;;;;;;;;5075861;28;20016;-76
2022/02/23 08:54:22;;;;;;;6.75;1.65;;;;;;;;;;5057423;28;20033;-76
2022/02/23 08:56:49;;;;;;;4.50;1.27;;;;;;;;;;5074556;28;20027;-76
2022/02/23 08:59:15;;;;;;;4.72;1.67;;;;;;;;;;5047605;28;20029;-76
2022/02/23 09:01:42;;;;;;;5.10;1.02;;;;;;;;;;5058172;28;20088;-76
2022/02/23 09:04:08;;;;;;;7.50;1.42;;;;;;;;;;5057850;28;20059;-77
2022/02/23 09:06:35;;;;;;;8.90;1.50;;;;;;;;;;5091891;28;20013;-74
2022/02/23 09:09:05;;;;;;;3.75;1.20;;;;;;;;;;5081512;28;20071;-74
2022/02/23 09:11:31;;;;;;;3.47;0.90;;;;;;;;;;5044251;28;20576;-73
2022/02/23 09:13:58;;;;;;;7.15;1.27;;;;;;;;;;5047168;28;20032;-73
2022/02/23 09:16:24;;;;;;;4.63;1.00;;;;;;;;;;5059892;28;20074;-75
2022/02/23 09:18:51;;;;;;;4.68;1.40;;;;;;;;;;5034414;28;20094;-74
2022/02/23 09:21:18;;;;;;;3.55;1.10;;;;;;;;;;5066933;28;20016;-73
2022/02/23 09:23:44;;;;;;;8.50;1.33;;;;;;;;;;5077819;28;20028;-72
2022/02/23 09:26:10;;;;;;;4.22;1.58;;;;;;;;;;5075490;28;20036;-72
2022/02/23 09:28:37;;;;;;;3.83;1.00;;;;;;;;;;5072148;28;20082;-72
2022/02/23 09:31:06;;;;;;;4.72;1.55;;;;;;;;;;5074095;28;20063;-72
2022/02/23 09:33:33;;;;;;;6.00;1.25;;;;;;;;;;5067665;28;20777;-72
2022/02/23 09:36:02;;;;;;;3.78;1.45;;;;;;;;;;5070892;28;20567;-74
2022/02/23 09:38:29;;;;;;;3.95;1.13;;;;;;;;;;5055487;28;20032;-73
2022/02/23 09:40:57;;;;;;;7.43;1.45;;;;;;;;;;5074223;28;20048;-73
2022/02/23 09:43:23;;;;;;;6.50;1.90;;;;;;;;;;5065177;28;20075;-72
2022/02/23 09:45:54;;;;;;;5.72;1.52;;;;;;;;;;5058006;28;20636;-72
2022/02/23 09:48:21;;;;;;;9.90;1.88;;;;;;;;;;5050827;28;20033;-72
2022/02/23 09:50:48;;;;;;;3.67;1.85;;;;;;;;;;5056151;28;20182;-75
2022/02/23 09:53:18;;;;;;;5.20;1.70;;;;;;;;;;5055229;28;20025;-73
2022/02/23 09:55:44;;;;;;;4.32;1.20;;;;;;;;;;5055060;28;20025;-73
2022/02/23 09:58:10;;;;;;;11.18;2.30;;;;;;;;;;5037065;28;20029;-73
2022/02/23 10:00:37;;;;;;;7.45;1.38;;;;;;;;;;5053578;28;20541;-72
2022/02/23 10:03:05;;;;;;;7.93;1.50;;;;;;;;;;5063403;28;20074;-73
2022/02/23 10:05:38;;;;;;;8.52;1.60;;;;;;;;;;5064362;28;20117;-72
2022/02/23 10:08:05;;;;;;;3.88;1.42;;;;;;;;;;5049393;28;20087;-72
2022/02/23 10:10:33;;;;;;;8.23;2.05;;;;;;;;;;5057954;28;20031;-72
2022/02/23 10:13:03;;;;;;;6.97;1.50;;;;;;;;;;5032941;28;20472;-72
2022/02/23 10:15:30;;;;;;;6.20;1.35;;;;;;;;;;5036328;28;20036;-72
2022/02/23 10:17:56;;;;;;;8.57;1.50;;;;;;;;;;5051972;28;20419;-73
2022/02/23 10:20:36;;;;;;;8.00;1.83;;;;;;;;;;5063897;28;20384;-73
2022/02/23 10:23:05;;;;;;;9.88;1.88;;;;;;;;;;5075055;28;20062;-73
2022/02/23 10:25:33;;;;;;;9.02;1.52;;;;;;;;;;5091224;28;20731;-72
2022/02/23 10:28:09;;;;;;;9.68;1.52;;;;;;;;;;5084568;28;20097;-73
2022/02/23 10:30:36;;;;;;;13.52;1.30;;;;;;;;;;5080309;28;20020;-73
2022/02/23 10:33:13;;;;;;;6.80;1.80;;;;;;;;;;5076770;28;20540;-73
2022/02/23 10:35:41;;;;;;;6.10;1.38;;;;;;;;;;5076664;28;20049;-73
2022/02/23 10:38:19;;;;;;;5.55;1.58;;;;;;;;;;5072941;28;20064;-73
2022/02/23 10:40:45;;;;;;;7.15;1.35;;;;;;;;;;5048922;28;20499;-75
2022/02/23 10:43:21;;;;;;;11.32;2.33;;;;;;;;;;5063619;28;20035;-75
2022/02/23 10:45:51;;;;;;;9.18;1.48;;;;;;;;;;5067046;28;20036;-76
2022/02/23 10:48:30;;;;;;;10.38;1.52;;;;;;;;;;5061324;28;20029;-75
2022/02/23 10:50:56;;;;;;;15.27;1.67;;;;;;;;;;5038570;28;20040;-74
2022/02/23 10:53:27;;;;;;;10.50;1.38;;;;;;;;;;5053960;28;20025;-75
2022/02/23 10:55:53;;;;;;;10.73;1.50;;;;;;;;;;5038485;28;20021;-75
2022/02/23 10:58:23;;;;;;;8.27;1.55;;;;;;;;;;5060297;28;20037;-74
2022/02/23 11:00:50;;;;;;;8.75;1.75;;;;;;;;;;5054239;28;20033;-75
2022/02/23 11:03:20;;;;;;;9.95;1.98;;;;;;;;;;5062664;28;20063;-75
2022/02/23 11:05:48;;;;;;;14.65;1.77;;;;;;;;;;5074477;28;20024;-74
2022/02/23 11:08:15;;;;;;;13.25;1.63;;;;;;;;;;5093444;28;20483;-75
2022/02/23 11:10:45;;;;;;;8.48;1.30;;;;;;;;;;5076795;28;20036;-75
2022/02/23 11:13:12;;;;;;;17.15;2.60;;;;;;;;;;5053417;28;20507;-75
2022/02/23 11:15:42;;;;;;;10.48;1.80;;;;;;;;;;5078715;28;20081;-76
2022/02/23 11:18:09;;;;;;;11.00;1.45;;;;;;;;;;5089184;28;20036;-75
2022/02/23 11:20:36;;;;;;;10.27;1.50;;;;;;;;;;5068883;28;20009;-75
2022/02/23 11:23:03;;;;;;;10.05;1.95;;;;;;;;;;5054928;28;20041;-76
2022/02/23 11:25:31;;;;;;;11.70;1.80;;;;;;;;;;5073929;28;20391;-74
2022/02/23 11:28:01;;;;;;;10.95;1.27;;;;;;;;;;5076834;28;20033;-75
2022/02/23 11:30:28;;;;;;;11.63;1.83;;;;;;;;;;5085781;28;20105;-75
2022/02/23 11:32:54;;;;;;;12.65;1.48;;;;;;;;;;5073163;28;20508;-76
2022/02/23 11:35:49;;;;;;;7.45;1.42;;;;;;;;;;5073445;28;20024;-75
2022/02/23 11:38:18;;;;;;;7.65;1.30;;;;;;;;;;5070044;28;20036;-75
2022/02/23 11:40:52;;;;;;;6.43;1.70;;;;;;;;;;5060263;28;20033;-75
2022/02/23 11:43:29;;;;;;;10.90;2.10;;;;;;;;;;5069742;28;20035;-75
2022/02/23 11:45:55;;;;;;;8.25;1.73;;;;;;;;;;5057307;28;20029;-75
2022/02/23 11:48:22;;;;;;;8.35;1.45;;;;;;;;;;5072831;28;20032;-74
2022/02/23 11:51:01;;;;;;;5.60;1.15;;;;;;;;;;5067167;28;20130;-74
2022/02/23 11:53:37;;;;;;;9.88;1.38;;;;;;;;;;5034481;28;20530;-75
2022/02/23 11:56:13;;;;;;;4.30;0.90;;;;;;;;;;5034447;28;20017;-74
2022/02/23 11:58:43;;;;;;;6.65;1.30;;;;;;;;;;5059608;28;20025;-74
2022/02/23 12:01:09;;;;;;;10.45;1.40;;;;;;;;;;5072492;28;20507;-74
2022/02/23 12:03:35;;;;;;;7.15;1.00;;;;;;;;;;5086605;28;20040;-74
2022/02/23 12:06:03;;;;;;;10.75;1.55;;;;;;;;;;5054750;28;20020;-74
2022/02/23 12:08:32;;;;;;;8.10;1.10;;;;;;;;;;5072264;28;20170;-75
2022/02/23 12:10:58;;;;;;;7.38;1.20;;;;;;;;;;5072483;28;20458;-74
2022/02/23 12:13:38;;;;;;;5.65;1.58;;;;;;;;;;5059431;28;20037;-73
2022/02/23 12:16:22;;;;;;;6.43;1.20;;;;;;;;;;5066353;28;20035;-75
2022/02/23 12:18:52;;;;;;;4.38;1.17;;;;;;;;;;5054562;28;20017;-75
2022/02/23 12:21:19;;;;;;;2.60;1.20;;;;;;;;;;5076862;28;20108;-75
2022/02/23 12:23:47;;;;;;;2.35;1.00;;;;;;;;;;5062709;28;20211;-75
2022/02/23 12:26:16;;;;;;;7.15;1.38;;;;;;;;;;5062598;28;20056;-75
2022/02/23 12:28:43;;;;;;;2.80;0.90;;;;;;;;;;5063426;28;20035;-75
2022/02/23 12:31:14;;;;;;;1.35;0.63;;;;;;;;;;5064662;28;20028;-75
2022/02/23 12:33:41;;;;;;;3.60;1.08;;;;;;;;;;5061335;28;20036;-75
2022/02/23 12:36:09;;;;;;;3.65;2.40;;;;;;;;;;5055667;28;20025;-75
2022/02/23 12:38:36;;;;;;;3.25;1.00;;;;;;;;;;5075694;28;20037;-75
2022/02/23 12:41:10;;;;;;;1.40;0.80;;;;;;;;;;5060882;28;20009;-74
2022/02/23 12:43:36;;;;;;;4.78;1.15;;;;;;;;;;5090735;28;20028;-74
2022/02/23 12:46:03;;;;;;;3.10;1.38;;;;;;;;;;5072281;28;20703;-74
2022/02/23 12:48:31;;;;;;;2.00;0.77;;;;;;;;;;5059698;28;20526;-75
2022/02/23 12:51:08;;;;;;;4.40;1.10;;;;;;;;;;5057552;28;20020;-74
2022/02/23 12:53:41;;;;;;;5.55;1.00;;;;;;;;;;5056903;28;20063;-75
2022/02/23 12:56:17;;;;;;;3.33;1.13;;;;;;;;;;5061259;28;20024;-75
2022/02/23 12:58:44;;;;;;;3.00;0.68;;;;;;;;;;5039403;28;20032;-75
2022/02/23 13:01:21;;;;;;;5.70;1.00;;;;;;;;;;5052669;28;20025;-76
2022/02/23 13:03:47;;;;;;;5.03;3.30;;;;;;;;;;5055721;28;20028;-76
2022/02/23 13:06:13;;;;;;;6.32;2.58;;;;;;;;;;5049889;28;20528;-76
2022/02/23 13:08:40;;;;;;;5.25;2.35;;;;;;;;;;5055127;28;20036;-75
2022/02/23 13:11:06;;;;;;;3.65;1.48;;;;;;;;;;5059338;28;20041;-76
2022/02/23 13:13:36;;;;;;;5.38;3.90;;;;;;;;;;5071800;28;20040;-76
2022/02/23 13:16:06;;;;;;;4.13;2.45;;;;;;;;;;5091864;28;20028;-76
2022/02/23 13:18:35;;;;;;;4.65;1.55;;;;;;;;;;5050644;28;20025;-75
2022/02/23 13:21:17;;;;;;;2.65;1.40;;;;;;;;;;5040823;28;20120;-76
2022/02/23 13:23:53;;;;;;;4.70;1.20;;;;;;;;;;5038443;28;20179;-75
2022/02/23 13:26:20;;;;;;;12.63;1.63;;;;;;;;;;5051099;28;20039;-76
2022/02/23 13:29:00;;;;;;;4.00;1.80;;;;;;;;;;5063287;28;20389;-76
2022/02/23 13:31:33;;;;;;;3.35;1.25;;;;;;;;;;5071408;28;20031;-75
2022/02/23 13:34:18;;;;;;;8.63;5.25;;;;;;;;;;5071386;28;20032;-75
2022/02/23 13:36:44;;;;;;;4.93;2.28;;;;;;;;;;5058953;28;20021;-76
2022/02/23 13:39:30;;;;;;;4.43;1.60;;;;;;;;;;5059007;28;20406;-75
2022/02/23 13:42:07;;;;;;;4.10;1.67;;;;;;;;;;5050589;28;20021;-76
2022/02/23 13:44:37;;;;;;;4.47;1.30;;;;;;;;;;5051605;28;20033;-76
2022/02/23 13:47:07;;;;;;;3.08;1.08;;;;;;;;;;5069408;28;20116;-75
2022/02/23 13:49:33;;;;;;;4.15;1.25;;;;;;;;;;5036147;28;20108;-76
2022/02/23 13:52:00;;;;;;;3.97;1.25;;;;;;;;;;5059751;28;20021;-76
2022/02/23 13:54:27;;;;;;;5.20;1.15;;;;;;;;;;5061048;28;20103;-76
2022/02/23 13:56:54;;;;;;;1.98;0.90;;;;;;;;;;5052863;28;20387;-76
2022/02/23 13:59:21;;;;;;;7.50;1.35;;;;;;;;;;5069556;28;20060;-75
2022/02/23 14:02:01;;;;;;;3.03;1.48;;;;;;;;;;5070241;28;20082;-76
2022/02/23 14:04:38;;;;;;;2.38;0.95;;;;;;;;;;5038759;28;20033;-75
2022/02/23 14:07:04;;;;;;;3.35;1.25;;;;;;;;;;5058343;28;20029;-75
2022/02/23 14:09:35;;;;;;;2.63;1.10;;;;;;;;;;5054239;28;20029;-76
2022/02/23 14:12:02;;;;;;;2.85;0.85;;;;;;;;;;5036653;28;20495;-76
2022/02/23 14:14:36;;;;;;;3.28;1.33;;;;;;;;;;5036898;28;20037;-76
2022/02/23 14:17:12;;;;;;;5.93;1.52;;;;;;;;;;5036843;28;20017;-76
2022/02/23 14:19:39;;;;;;;2.60;1.05;;;;;;;;;;5036889;28;20523;-76
2022/02/23 14:22:06;;;;;;;2.40;1.10;;;;;;;;;;5053943;28;20032;-76
2022/02/23 14:24:34;;;;;;;4.03;0.90;;;;;;;;;;5054545;28;20028;-76
2022/02/23 14:27:05;;;;;;;2.28;1.08;;;;;;;;;;5054579;28;20021;-76
2022/02/23 14:29:35;;;;;;;4.88;1.30;;;;;;;;;;5054468;28;20466;-76
2022/02/23 14:32:02;;;;;;;2.72;1.30;;;;;;;;;;5054482;28;20021;-75
2022/02/23 14:34:29;;;;;;;5.03;1.55;;;;;;;;;;5044244;28;20032;-76
2022/02/23 14:36:57;;;;;;;4.07;1.15;;;;;;;;;;5094467;28;20016;-76
2022/02/23 14:39:24;;;;;;;3.83;1.42;;;;;;;;;;5092810;28;20112;-76
2022/02/23 14:41:51;;;;;;;4.15;1.80;;;;;;;;;;5084880;28;20016;-76
2022/02/23 14:44:17;;;;;;;6.90;2.08;;;;;;;;;;5055960;28;20032;-76
2022/02/23 14:46:44;;;;;;;3.85;1.27;;;;;;;;;;5055020;28;20024;-76
2022/02/23 14:49:10;;;;;;;4.35;1.25;;;;;;;;;;5089160;28;20093;-76
2022/02/23 14:51:36;;;;;;;4.53;1.23;;;;;;;;;;5089109;28;20024;-76